Newton, North Carolina
Current Conditions -  °F | °C
As of 4:53 AM on Saturday 01 Nov 2014 (Local Time) from KHKY Reporting Station
Overcast Overcast  
Wind Chill: 33°   Ceiling: 4500
Heat Index: 40°   Visibility: 10mi
Dew Point: 33°   Wind: 12mph
Humidity: 77%   Direction: 360°N
Pressure: 29.72"   Gusts: NA
Location:  35.67°N, 81.22°W
Report Text: KHKY 010853Z AUTO 36010KT 10SM OVC045 04/01 A2972 RMK AO2 SLP056 60008 T00440006 56014
Loading
Personal Weather Stations






























Interactive Weather Map
Tropical Storm Tracking
New forecast layout! Learn more

10-Day Weather Forecast

Advertisements
Track Severe Weather on mobile